Time;durP1;ratioP1;P1;durP2;ratioP2;P2;SDS_P1;SDS_P2;PMS_P1;PMS_P2;Temp;Humidity;BMP_temperature;BMP_pressure;BME280_temperature;BME280_humidity;BME280_pressure;Samples;Min_cycle;Max_cycle;Signal;HPM_P1;HPM_P2
2024/03/16 00:01:32;;;;;;;13.85;2.20;;;;;;;10.85;100.00;100721.38;4977115;28;20046;-74
2024/03/16 00:03:57;;;;;;;9.32;2.03;;;;;;;10.84;100.00;100718.91;4991046;28;20049;-74
2024/03/16 00:06:23;;;;;;;15.10;2.33;;;;;;;10.82;100.00;100723.94;4977352;28;20030;-74
2024/03/16 00:08:48;;;;;;;16.70;2.10;;;;;;;10.80;100.00;100720.59;4993477;28;20548;-74
2024/03/16 00:11:14;;;;;;;16.30;2.28;;;;;;;10.82;100.00;100729.47;4992002;28;20030;-74
2024/03/16 00:13:39;;;;;;;9.60;1.70;;;;;;;10.81;100.00;100730.59;4985012;28;20046;-74
2024/03/16 00:16:05;;;;;;;14.63;2.38;;;;;;;10.83;100.00;100729.19;4989620;28;20081;-74
2024/03/16 00:18:31;;;;;;;12.52;2.00;;;;;;;10.82;100.00;100726.72;4977400;28;20086;-74
2024/03/16 00:20:56;;;;;;;9.60;1.52;;;;;;;10.84;100.00;100728.06;4990283;28;20068;-74
2024/03/16 00:23:22;;;;;;;13.27;2.38;;;;;;;10.84;100.00;100730.03;4961222;28;20092;-74
2024/03/16 00:25:47;;;;;;;9.32;1.38;;;;;;;10.85;100.00;100740.00;4977551;28;20055;-74
2024/03/16 00:28:12;;;;;;;13.45;2.10;;;;;;;10.81;100.00;100734.22;4968134;28;20034;-74
2024/03/16 00:30:38;;;;;;;12.82;1.60;;;;;;;10.84;100.00;100735.59;5009561;28;20038;-74
2024/03/16 00:33:04;;;;;;;11.07;2.05;;;;;;;10.84;100.00;100730.84;4975267;28;20502;-74
2024/03/16 00:35:30;;;;;;;9.23;1.65;;;;;;;10.79;100.00;100733.66;4971414;28;20038;-74
2024/03/16 00:37:55;;;;;;;12.20;1.52;;;;;;;10.81;100.00;100734.22;4957755;28;20098;-74
2024/03/16 00:40:21;;;;;;;11.40;1.98;;;;;;;10.80;100.00;100740.06;5005046;28;20478;-74
2024/03/16 00:42:46;;;;;;;11.48;1.67;;;;;;;10.83;100.00;100753.34;5006299;28;20030;-74
2024/03/16 00:45:12;;;;;;;9.93;1.73;;;;;;;10.81;100.00;100745.34;4996909;28;20034;-74
2024/03/16 00:47:38;;;;;;;13.85;2.22;;;;;;;10.81;100.00;100742.56;4996959;28;20034;-74
2024/03/16 00:50:04;;;;;;;9.43;1.77;;;;;;;10.81;100.00;100745.34;4980816;28;20085;-74
2024/03/16 00:52:30;;;;;;;9.68;1.98;;;;;;;10.82;100.00;100741.41;4997315;28;20038;-74
2024/03/16 00:54:56;;;;;;;15.27;1.80;;;;;;;10.82;100.00;100755.31;4979082;28;20466;-74
2024/03/16 00:57:23;;;;;;;12.13;1.65;;;;;;;10.81;100.00;100759.22;4991325;28;20056;-74
2024/03/16 00:59:48;;;;;;;11.18;1.95;;;;;;;10.84;100.00;100757.81;4967397;28;20079;-74
2024/03/16 01:02:14;;;;;;;11.77;1.77;;;;;;;10.82;100.00;100769.22;4988452;28;20046;-74
2024/03/16 01:04:39;;;;;;;14.73;2.00;;;;;;;10.79;100.00;100757.84;5013173;28;20030;-74
2024/03/16 01:07:05;;;;;;;10.57;2.05;;;;;;;10.80;100.00;100757.53;4997658;28;20540;-74
2024/03/16 01:09:30;;;;;;;7.13;1.55;;;;;;;10.79;100.00;100750.34;4963640;28;20030;-74
2024/03/16 01:11:56;;;;;;;10.55;2.08;;;;;;;10.74;100.00;100756.75;4964115;28;20497;-74
2024/03/16 01:14:21;;;;;;;12.25;1.80;;;;;;;10.72;100.00;100753.44;4980053;28;20045;-74
2024/03/16 01:16:47;;;;;;;9.75;1.63;;;;;;;10.73;100.00;100757.88;5005610;28;20022;-74
2024/03/16 01:19:12;;;;;;;10.55;2.10;;;;;;;10.70;100.00;100763.19;4983900;28;20034;-74
2024/03/16 01:21:38;;;;;;;12.93;1.83;;;;;;;10.71;100.00;100770.41;4972296;28;20042;-74
2024/03/16 01:24:05;;;;;;;14.00;2.00;;;;;;;10.68;100.00;100779.31;4959488;28;20027;-74
2024/03/16 01:26:31;;;;;;;7.35;1.58;;;;;;;10.69;100.00;100786.50;4979265;28;20534;-74
2024/03/16 01:28:59;;;;;;;10.00;1.95;;;;;;;10.64;100.00;100781.00;5009077;28;20038;-74
2024/03/16 01:31:25;;;;;;;9.73;1.80;;;;;;;10.63;100.00;100776.56;5006220;28;20034;-74
2024/03/16 01:33:51;;;;;;;12.07;2.50;;;;;;;10.58;100.00;100779.38;4970394;28;20030;-74
2024/03/16 01:36:16;;;;;;;8.90;1.60;;;;;;;10.59;100.00;100792.16;4967111;28;20041;-74
2024/03/16 01:38:43;;;;;;;14.02;2.17;;;;;;;10.51;100.00;100786.06;4982346;28;20040;-74
2024/03/16 01:41:08;;;;;;;9.52;2.00;;;;;;;10.49;100.00;100785.53;5006627;28;20049;-74
2024/03/16 01:43:34;;;;;;;14.02;2.33;;;;;;;10.47;100.00;100787.78;4938755;28;20395;-74
2024/03/16 01:45:59;;;;;;;11.85;1.77;;;;;;;10.44;100.00;100787.50;4976355;28;20027;-74
2024/03/16 01:48:25;;;;;;;13.60;2.05;;;;;;;10.40;100.00;100787.25;5000810;28;20026;-74
2024/03/16 01:50:52;;;;;;;10.93;1.85;;;;;;;10.38;100.00;100795.03;4995860;28;20030;-74
2024/03/16 01:53:17;;;;;;;12.27;1.77;;;;;;;10.38;100.00;100795.03;4979363;28;20121;-75
2024/03/16 01:55:43;;;;;;;16.40;2.33;;;;;;;10.26;100.00;100792.56;4995510;28;20031;-74
2024/03/16 01:58:08;;;;;;;9.15;1.65;;;;;;;10.25;100.00;100790.91;4977138;28;20034;-74
2024/03/16 02:00:34;;;;;;;15.70;2.38;;;;;;;10.23;100.00;100792.31;4997577;28;20525;-74
2024/03/16 02:02:59;;;;;;;10.68;2.00;;;;;;;10.20;100.00;100792.88;4967462;28;20483;-74
2024/03/16 02:05:25;;;;;;;14.70;2.45;;;;;;;10.17;100.00;100790.66;4971033;28;20030;-74
2024/03/16 02:07:50;;;;;;;16.40;2.50;;;;;;;10.07;100.00;100786.81;4999769;28;20030;-74
2024/03/16 02:10:16;;;;;;;10.88;1.85;;;;;;;10.07;100.00;100795.16;4980539;28;20034;-74
2024/03/16 02:12:42;;;;;;;11.57;2.10;;;;;;;10.01;100.00;100795.47;4980180;28;20068;-74
2024/03/16 02:15:08;;;;;;;11.77;2.00;;;;;;;10.00;100.00;100794.63;4981284;28;20030;-74
2024/03/16 02:17:34;;;;;;;11.70;1.90;;;;;;;10.00;100.00;100788.22;4983098;28;20037;-74
2024/03/16 02:20:00;;;;;;;14.75;2.45;;;;;;;9.91;100.00;100789.94;4965620;28;20027;-74
2024/03/16 02:22:25;;;;;;;13.70;1.95;;;;;;;9.90;100.00;100791.88;4991164;28;20030;-74
2024/03/16 02:24:51;;;;;;;12.27;2.13;;;;;;;9.86;100.00;100799.09;4975725;28;20037;-74
2024/03/16 02:27:16;;;;;;;14.02;2.15;;;;;;;9.79;100.00;100796.63;4997551;28;20037;-74
2024/03/16 02:29:42;;;;;;;9.77;1.83;;;;;;;9.80;100.00;100800.22;4989182;28;20030;-74
2024/03/16 02:32:09;;;;;;;9.82;1.90;;;;;;;9.71;100.00;100799.16;4995313;28;20105;-74
2024/03/16 02:34:38;;;;;;;10.20;1.98;;;;;;;9.65;100.00;100803.88;4962803;28;20036;-74
2024/03/16 02:37:04;;;;;;;14.80;2.42;;;;;;;9.60;100.00;100801.94;4966854;28;20034;-74
2024/03/16 02:39:33;;;;;;;10.25;2.05;;;;;;;9.56;100.00;100805.56;4990819;28;20034;-74
2024/03/16 02:41:59;;;;;;;11.23;1.75;;;;;;;9.51;100.00;100809.19;5005654;28;20202;-74
2024/03/16 02:44:25;;;;;;;15.32;2.95;;;;;;;9.49;100.00;100811.41;4994842;28;20522;-74
2024/03/16 02:46:51;;;;;;;9.60;1.95;;;;;;;9.42;100.00;100821.09;4962651;28;20029;-74
2024/03/16 02:49:16;;;;;;;11.20;2.22;;;;;;;9.40;100.00;100813.91;4989374;28;20038;-74
2024/03/16 02:51:42;;;;;;;14.77;2.03;;;;;;;9.34;100.00;100815.03;4997587;28;20056;-74
2024/03/16 02:54:09;;;;;;;16.50;1.95;;;;;;;9.32;100.00;100819.19;5000880;28;20026;-74
2024/03/16 02:56:35;;;;;;;15.82;2.25;;;;;;;9.24;100.00;100819.75;4960726;28;20030;-74
2024/03/16 02:59:00;;;;;;;13.50;2.30;;;;;;;9.17;100.00;100822.78;4992875;28;20089;-74
2024/03/16 03:01:26;;;;;;;12.80;2.00;;;;;;;9.15;100.00;100822.22;4978014;28;20102;-74
2024/03/16 03:03:51;;;;;;;10.48;1.90;;;;;;;9.11;100.00;100833.06;4994363;28;20540;-74
2024/03/16 03:06:18;;;;;;;13.38;2.55;;;;;;;9.06;100.00;100821.97;4992602;28;20034;-74
2024/03/16 03:08:44;;;;;;;13.85;1.95;;;;;;;9.00;100.00;100825.84;4980467;28;20058;-74
2024/03/16 03:11:10;;;;;;;9.35;1.63;;;;;;;8.98;100.00;100825.28;4986520;28;20046;-74
2024/03/16 03:13:36;;;;;;;13.70;2.40;;;;;;;8.97;100.00;100825.53;4962247;28;20037;-74
2024/03/16 03:16:02;;;;;;;10.60;2.10;;;;;;;8.92;100.00;100832.75;4996308;28;20034;-74
2024/03/16 03:18:27;;;;;;;16.02;1.98;;;;;;;8.86;100.00;100841.31;4972154;28;20049;-74
2024/03/16 03:20:53;;;;;;;10.15;2.00;;;;;;;8.83;100.00;100839.09;4997393;28;20041;-73
2024/03/16 03:23:19;;;;;;;16.58;2.47;;;;;;;8.80;100.00;100832.16;4952024;28;20027;-73
2024/03/16 03:25:47;;;;;;;11.63;1.55;;;;;;;8.78;100.00;100850.19;4994137;28;20022;-73
2024/03/16 03:28:12;;;;;;;11.98;2.13;;;;;;;8.72;100.00;100847.41;4994532;28;20035;-73
2024/03/16 03:30:38;;;;;;;9.73;2.05;;;;;;;8.68;100.00;100856.50;5006952;28;20084;-74
2024/03/16 03:33:03;;;;;;;9.00;1.80;;;;;;;8.66;100.00;100862.34;4961781;28;20022;-74
2024/03/16 03:35:29;;;;;;;16.85;3.05;;;;;;;8.63;100.00;100860.09;4990664;28;20117;-74
2024/03/16 03:37:54;;;;;;;13.98;2.53;;;;;;;8.58;100.00;100857.34;4961458;28;20038;-73
2024/03/16 03:40:20;;;;;;;17.00;2.17;;;;;;;8.55;100.00;100854.25;4971010;28;20029;-74
2024/03/16 03:42:48;;;;;;;11.73;2.33;;;;;;;8.53;100.00;100857.31;4986517;28;20356;-73
2024/03/16 03:45:37;;;;;;;14.63;2.65;;;;;;;8.52;100.00;100847.31;4960816;28;20534;-73
2024/03/16 03:48:14;;;;;;;12.10;2.33;;;;;;;8.49;100.00;100864.47;4980809;28;20061;-73
2024/03/16 03:50:40;;;;;;;14.85;2.30;;;;;;;8.50;100.00;100846.78;5003733;28;20029;-74
2024/03/16 03:53:06;;;;;;;13.57;2.13;;;;;;;8.45;100.00;100852.31;4980620;28;20583;-74
2024/03/16 03:55:31;;;;;;;13.32;2.28;;;;;;;8.43;100.00;100860.03;4998289;28;20030;-74
2024/03/16 03:57:57;;;;;;;11.07;2.35;;;;;;;8.43;100.00;100860.88;4984558;28;20498;-73
2024/03/16 04:00:22;;;;;;;11.63;2.33;;;;;;;8.42;100.00;100855.63;4971030;28;20054;-74
2024/03/16 04:02:48;;;;;;;9.55;1.83;;;;;;;8.36;100.00;100864.94;4980093;28;20445;-74
2024/03/16 04:05:13;;;;;;;8.80;1.90;;;;;;;8.33;100.00;100859.97;5007615;28;20034;-74
2024/03/16 04:07:39;;;;;;;10.70;1.85;;;;;;;8.33;100.00;100862.72;4985154;28;20561;-74
2024/03/16 04:10:05;;;;;;;11.88;2.20;;;;;;;8.30;100.00;100864.09;4984703;28;20037;-73
2024/03/16 04:12:31;;;;;;;13.35;2.30;;;;;;;8.28;100.00;100863.56;4958883;28;20477;-73
2024/03/16 04:14:57;;;;;;;11.40;2.05;;;;;;;8.26;100.00;100876.81;4965590;28;20057;-74
2024/03/16 04:17:22;;;;;;;11.38;1.77;;;;;;;8.28;100.00;100880.97;4992553;28;20034;-74
2024/03/16 04:19:48;;;;;;;12.07;1.98;;;;;;;8.25;100.00;100887.06;4978447;28;20026;-73
2024/03/16 04:22:14;;;;;;;13.45;2.10;;;;;;;8.25;100.00;100887.06;4987498;28;20057;-73
2024/03/16 04:24:39;;;;;;;11.75;1.95;;;;;;;8.23;100.00;100882.91;4985416;28;20089;-73
2024/03/16 04:27:05;;;;;;;19.55;2.47;;;;;;;8.24;100.00;100888.16;4965237;28;20526;-73
2024/03/16 04:29:33;;;;;;;15.40;2.38;;;;;;;8.23;100.00;100883.72;5010334;28;20084;-73
2024/03/16 04:31:59;;;;;;;10.25;1.83;;;;;;;8.20;100.00;100881.50;4998999;28;20029;-73
2024/03/16 04:34:27;;;;;;;13.60;2.67;;;;;;;8.17;100.00;100889.50;4992122;28;20034;-73
2024/03/16 04:36:53;;;;;;;16.75;2.50;;;;;;;8.19;100.00;100888.16;5010454;28;20382;-73
2024/03/16 04:39:22;;;;;;;9.90;1.85;;;;;;;8.14;100.00;100892.81;4993484;28;20022;-73
2024/03/16 04:41:49;;;;;;;11.85;2.13;;;;;;;8.14;100.00;100899.19;4990538;28;20030;-73
2024/03/16 04:44:14;;;;;;;11.25;1.75;;;;;;;8.12;100.00;100909.66;4989116;28;20035;-73
2024/03/16 04:46:40;;;;;;;10.57;1.65;;;;;;;8.17;100.00;100906.13;4979980;28;20037;-74
2024/03/16 04:49:05;;;;;;;15.73;2.58;;;;;;;8.17;100.00;100906.94;4970056;28;20035;-74
2024/03/16 04:51:31;;;;;;;12.00;2.38;;;;;;;8.16;100.00;100908.06;4983317;28;20045;-74
2024/03/16 04:53:57;;;;;;;9.80;1.83;;;;;;;8.17;100.00;100914.41;4956417;28;20026;-74
2024/03/16 04:56:23;;;;;;;8.05;1.90;;;;;;;8.18;100.00;100919.66;4980043;28;20029;-74
2024/03/16 04:58:48;;;;;;;13.30;2.38;;;;;;;8.18;100.00;100916.91;4983828;28;20103;-73
2024/03/16 05:01:14;;;;;;;10.38;2.40;;;;;;;8.22;100.00;100911.69;5001007;28;20088;-74
2024/03/16 05:03:39;;;;;;;10.50;1.98;;;;;;;8.25;100.00;100908.38;4983595;28;20061;-73
2024/03/16 05:06:04;;;;;;;11.65;1.98;;;;;;;8.26;100.00;100907.25;4954789;28;20026;-73
2024/03/16 05:08:30;;;;;;;9.88;2.10;;;;;;;8.28;100.00;100919.72;4957637;28;20034;-73
2024/03/16 05:10:58;;;;;;;13.52;2.13;;;;;;;8.35;100.00;100919.47;4999777;28;20494;-74
2024/03/16 05:13:26;;;;;;;13.65;2.25;;;;;;;8.37;100.00;100922.81;5006703;28;20102;-74
2024/03/16 05:15:52;;;;;;;10.75;2.30;;;;;;;8.43;100.00;100930.06;5026700;28;20045;-74
2024/03/16 05:18:18;;;;;;;14.30;2.42;;;;;;;8.43;100.00;100930.06;4991696;28;20053;-74
2024/03/16 05:20:44;;;;;;;9.55;1.60;;;;;;;8.46;100.00;100925.91;4997348;28;20060;-74
2024/03/16 05:23:10;;;;;;;14.52;2.40;;;;;;;8.48;100.00;100927.31;4988286;28;20053;-74
2024/03/16 05:25:35;;;;;;;10.40;1.92;;;;;;;8.49;100.00;100928.16;4978560;28;20030;-74
2024/03/16 05:28:01;;;;;;;12.50;2.20;;;;;;;8.55;100.00;100929.81;5005936;28;20029;-74
2024/03/16 05:30:27;;;;;;;11.43;2.28;;;;;;;8.60;100.00;100940.94;5007394;28;20058;-74
2024/03/16 05:32:53;;;;;;;10.57;2.08;;;;;;;8.62;100.00;100930.44;4979814;28;20037;-74
2024/03/16 05:35:18;;;;;;;11.13;2.17;;;;;;;8.67;100.00;100930.44;4962694;28;20022;-74
2024/03/16 05:37:44;;;;;;;11.93;2.63;;;;;;;8.68;100.00;100942.34;4963382;28;20035;-74
2024/03/16 05:40:10;;;;;;;11.60;2.28;;;;;;;8.70;100.00;100938.22;4979546;28;20386;-74
2024/03/16 05:42:38;;;;;;;11.52;2.00;;;;;;;8.71;100.00;100944.56;4995648;28;20511;-74
2024/03/16 05:45:05;;;;;;;7.40;2.10;;;;;;;8.76;100.00;100941.00;4997013;28;20038;-74
2024/03/16 05:47:30;;;;;;;12.43;2.13;;;;;;;8.76;100.00;100949.31;4979755;28;20546;-74
2024/03/16 05:49:56;;;;;;;11.63;2.13;;;;;;;8.81;100.00;100952.09;4995880;28;20054;-73
2024/03/16 05:52:21;;;;;;;14.82;3.08;;;;;;;8.82;100.00;100951.00;4996009;28;20033;-74
2024/03/16 05:54:47;;;;;;;8.48;1.50;;;;;;;8.84;100.00;100955.16;4947504;28;20395;-74
2024/03/16 05:57:12;;;;;;;8.00;1.98;;;;;;;8.85;100.00;100961.53;4969837;28;20039;-74
2024/03/16 05:59:38;;;;;;;9.88;1.85;;;;;;;8.87;100.00;100959.31;4992038;28;20037;-73
2024/03/16 06:02:03;;;;;;;15.93;2.25;;;;;;;8.90;100.00;100969.84;5011793;28;20057;-74
2024/03/16 06:04:29;;;;;;;11.05;2.25;;;;;;;8.94;100.00;100965.41;4979246;28;20053;-74
2024/03/16 06:06:55;;;;;;;10.57;1.95;;;;;;;8.93;100.00;100974.84;4998813;28;20038;-74
2024/03/16 06:09:20;;;;;;;12.43;2.78;;;;;;;8.95;100.00;100976.25;4995351;28;20031;-74
2024/03/16 06:11:46;;;;;;;10.63;2.00;;;;;;;8.95;100.00;100979.03;4995735;28;20426;-73
2024/03/16 06:14:11;;;;;;;12.43;2.17;;;;;;;8.99;100.00;100979.28;4996132;28;20036;-74
2024/03/16 06:16:40;;;;;;;8.00;1.90;;;;;;;8.98;100.00;100974.88;4982538;28;20030;-74
2024/03/16 06:19:06;;;;;;;10.18;1.92;;;;;;;9.07;100.00;100981.53;5000653;28;20426;-74
2024/03/16 06:21:32;;;;;;;10.38;2.15;;;;;;;9.03;100.00;100974.06;4989999;28;20034;-74
2024/03/16 06:23:58;;;;;;;12.05;2.33;;;;;;;9.03;100.00;100985.97;4991730;28;20037;-73
2024/03/16 06:26:23;;;;;;;9.75;2.15;;;;;;;9.05;100.00;100994.81;4993124;28;20066;-74
2024/03/16 06:29:02;;;;;;;12.77;1.95;;;;;;;9.06;100.00;100999.28;5009157;28;20033;-74
2024/03/16 06:31:36;;;;;;;11.45;2.55;;;;;;;9.10;100.00;101005.94;5011139;28;20053;-74
2024/03/16 06:34:04;;;;;;;10.15;1.95;;;;;;;9.11;100.00;101010.38;4968986;28;20514;-74
2024/03/16 06:36:33;;;;;;;11.38;2.00;;;;;;;9.15;100.00;101014.25;5002142;28;20112;-74
2024/03/16 06:39:06;;;;;;;10.75;1.95;;;;;;;9.17;100.00;101012.06;5007754;28;20554;-74
2024/03/16 06:41:31;;;;;;;;;;;;;;;9.17;100.00;101014.84;4980008;28;20030;-74
2024/03/16 06:43:56;;;;;;;11.80;2.22;;;;;;;9.21;100.00;101020.66;4983591;28;19910;-74
2024/03/16 06:46:22;;;;;;;11.27;1.77;;;;;;;9.21;100.00;101025.38;4991277;28;20542;-74
2024/03/16 06:48:48;;;;;;;13.40;2.38;;;;;;;9.24;100.00;101027.59;4955184;28;20664;-74
2024/03/16 06:51:13;;;;;;;9.57;1.92;;;;;;;9.24;100.00;101031.19;4956907;28;20030;-74
2024/03/16 06:53:39;;;;;;;11.90;2.20;;;;;;;9.28;100.00;101031.50;4987709;28;20037;-74
2024/03/16 06:56:06;;;;;;;9.95;1.83;;;;;;;9.31;100.00;101042.03;4978631;28;20478;-74
2024/03/16 06:58:32;;;;;;;9.57;1.80;;;;;;;9.33;100.00;101045.34;4990869;28;20081;-74
2024/03/16 07:00:58;;;;;;;8.25;2.28;;;;;;;9.35;100.00;101049.53;4977993;28;20446;-74
2024/03/16 07:03:23;;;;;;;10.52;1.90;;;;;;;9.38;100.00;101048.13;4995507;28;20035;-74
2024/03/16 07:05:49;;;;;;;12.00;2.08;;;;;;;9.41;100.00;101042.06;5008585;28;20402;-73
2024/03/16 07:08:17;;;;;;;8.90;2.00;;;;;;;9.44;100.00;101040.66;4994113;28;20034;-74
2024/03/16 07:10:44;;;;;;;9.63;2.00;;;;;;;9.45;100.00;101040.41;4994197;28;20622;-74
2024/03/16 07:13:10;;;;;;;9.40;2.00;;;;;;;9.49;100.00;101041.50;4986433;28;20416;-74
2024/03/16 07:15:35;;;;;;;9.73;1.67;;;;;;;9.53;100.00;101045.44;4963837;28;20025;-74
2024/03/16 07:18:01;;;;;;;10.60;2.25;;;;;;;9.57;100.00;101040.97;4984642;28;20084;-73
2024/03/16 07:20:26;;;;;;;9.43;1.80;;;;;;;9.62;100.00;101052.09;4984791;28;20022;-74
2024/03/16 07:22:54;;;;;;;9.93;2.10;;;;;;;9.66;100.00;101048.75;4984075;28;20033;-74
2024/03/16 07:25:20;;;;;;;13.55;2.00;;;;;;;9.74;100.00;101046.28;5000771;28;20023;-74
2024/03/16 07:27:46;;;;;;;10.85;2.58;;;;;;;9.79;100.00;101048.22;4962720;28;20390;-74
2024/03/16 07:30:12;;;;;;;8.18;1.92;;;;;;;9.87;100.00;101053.22;4981676;28;20386;-74
2024/03/16 07:32:38;;;;;;;10.40;2.60;;;;;;;9.94;100.00;101050.19;4991972;28;20027;-74
2024/03/16 07:35:06;;;;;;;8.40;1.90;;;;;;;10.01;100.00;101054.34;5001053;28;20029;-74
2024/03/16 07:37:32;;;;;;;16.95;2.58;;;;;;;10.07;100.00;101053.22;4993665;28;20022;-74
2024/03/16 07:39:57;;;;;;;12.27;2.85;;;;;;;10.16;100.00;101052.69;5000430;28;20549;-74
2024/03/16 07:42:23;;;;;;;11.48;2.40;;;;;;;10.26;100.00;101053.50;4977439;28;20027;-74
2024/03/16 07:44:49;;;;;;;11.77;2.10;;;;;;;10.40;100.00;101052.97;4961433;28;20434;-74
2024/03/16 07:47:14;;;;;;;8.30;1.90;;;;;;;10.49;100.00;101045.75;4977900;28;20037;-74
2024/03/16 07:49:40;;;;;;;16.38;4.32;;;;;;;10.59;100.00;101045.72;5010776;28;20034;-74
2024/03/16 07:52:07;;;;;;;12.68;3.40;;;;;;;10.70;100.00;101046.53;5007449;28;20546;-75
2024/03/16 07:54:33;;;;;;;15.30;3.10;;;;;;;10.78;100.00;101042.31;5001942;28;20208;-74
2024/03/16 07:56:58;;;;;;;11.52;2.92;;;;;;;10.88;100.00;101043.13;4997159;28;20596;-74
2024/03/16 07:59:24;;;;;;;19.02;2.83;;;;;;;10.98;100.00;101038.63;5001582;28;20034;-73
2024/03/16 08:01:50;;;;;;;12.55;2.85;;;;;;;11.07;100.00;101028.63;4989172;28;20125;-74
2024/03/16 08:04:15;;;;;;;13.15;2.80;;;;;;;11.19;100.00;101032.72;5009905;28;20041;-74
2024/03/16 08:06:41;;;;;;;13.50;3.30;;;;;;;11.25;100.00;101024.34;4977634;28;20030;-74
2024/03/16 08:09:11;;;;;;;15.52;2.75;;;;;;;11.35;100.00;101029.88;4970321;28;20037;-74
2024/03/16 08:11:37;;;;;;;14.70;2.60;;;;;;;11.43;100.00;101034.00;4981050;28;20481;-74
2024/03/16 08:14:05;;;;;;;15.02;2.92;;;;;;;11.51;100.00;101034.22;4979717;28;20031;-74
2024/03/16 08:16:30;;;;;;;13.35;2.38;;;;;;;11.63;100.00;101031.09;5005567;28;20026;-74
2024/03/16 08:18:56;;;;;;;11.13;2.40;;;;;;;11.68;100.00;101022.69;4980425;28;20502;-74
2024/03/16 08:21:21;;;;;;;19.88;2.72;;;;;;;11.76;100.00;101027.66;4959826;28;20445;-74
2024/03/16 08:23:50;;;;;;;18.85;3.10;;;;;;;11.85;100.00;101028.72;4993587;28;20471;-74
2024/03/16 08:26:15;;;;;;;21.23;2.50;;;;;;;11.91;100.00;101034.25;5000199;28;20029;-74
2024/03/16 08:28:41;;;;;;;19.05;2.85;;;;;;;11.99;100.00;101036.41;4990073;28;20538;-74
2024/03/16 08:31:08;;;;;;;18.25;3.17;;;;;;;12.08;100.00;101031.88;4991916;28;20104;-74
2024/03/16 08:33:33;;;;;;;20.88;3.50;;;;;;;12.18;100.00;101045.72;4977289;28;20050;-74
2024/03/16 08:35:59;;;;;;;15.75;3.15;;;;;;;12.28;100.00;101030.84;4977120;28;20475;-74
2024/03/16 08:38:24;;;;;;;15.68;2.92;;;;;;;12.36;100.00;101030.22;4961021;28;20057;-73
2024/03/16 08:40:50;;;;;;;19.73;2.92;;;;;;;12.48;100.00;101035.41;4992689;28;20080;-74
2024/03/16 08:43:16;;;;;;;24.17;3.38;;;;;;;12.59;100.00;101036.97;4970673;28;20026;-73
2024/03/16 08:45:42;;;;;;;24.17;3.90;;;;;;;12.71;100.00;101042.97;4993125;28;20037;-73
2024/03/16 08:48:07;;;;;;;16.38;2.65;;;;;;;12.84;100.00;101043.38;4976898;28;20038;-74
2024/03/16 08:50:32;;;;;;;18.33;3.70;;;;;;;13.00;100.00;101052.41;4999622;28;20093;-73
2024/03/16 08:52:58;;;;;;;21.40;4.05;;;;;;;13.11;100.00;101046.41;4967362;28;20475;-73
2024/03/16 08:55:25;;;;;;;26.17;4.55;;;;;;;13.23;100.00;101054.31;4970217;28;20543;-74
2024/03/16 08:57:51;;;;;;;24.40;3.78;;;;;;;13.36;100.00;101059.22;4993638;28;20486;-74
2024/03/16 09:00:16;;;;;;;24.08;4.05;;;;;;;13.48;100.00;101058.75;4964479;28;20064;-74
2024/03/16 09:02:42;;;;;;;30.25;4.03;;;;;;;13.59;100.00;101054.69;4948522;28;20101;-74
2024/03/16 09:05:08;;;;;;;39.38;5.63;;;;;;;13.71;100.00;101068.22;4964494;28;20026;-74
2024/03/16 09:07:36;;;;;;;26.60;5.10;;;;;;;13.80;100.00;101054.41;4980128;28;20466;-74
2024/03/16 09:10:06;;;;;;;32.80;5.13;;;;;;;13.94;100.00;101065.66;4980710;28;20061;-73
2024/03/16 09:12:32;;;;;;;32.42;5.13;;;;;;;14.05;100.00;101070.75;4964188;28;20386;-74
2024/03/16 09:14:58;;;;;;;33.05;4.82;;;;;;;14.21;100.00;101068.56;4987822;28;20104;-74
2024/03/16 09:17:24;;;;;;;28.63;4.15;;;;;;;14.33;100.00;101061.66;4980305;28;20061;-74
2024/03/16 09:19:49;;;;;;;37.40;5.57;;;;;;;14.44;100.00;101061.16;4996772;28;20038;-74
2024/03/16 09:22:16;;;;;;;36.65;5.78;;;;;;;14.60;100.00;101067.34;5010594;28;20540;-74
2024/03/16 09:24:41;;;;;;;29.25;4.57;;;;;;;14.74;100.00;101067.38;4979871;28;20036;-74
2024/03/16 09:27:07;;;;;;;27.90;4.22;;;;;;;14.90;100.00;101065.91;4965484;28;20030;-74
2024/03/16 09:29:33;;;;;;;25.67;5.00;;;;;;;15.05;100.00;101067.59;4992053;28;20038;-74
2024/03/16 09:31:59;;;;;;;33.72;5.30;;;;;;;15.19;100.00;101064.78;4975682;28;20022;-74
2024/03/16 09:34:24;;;;;;;34.50;5.00;;;;;;;15.33;100.00;101062.81;4967085;28;20041;-74
2024/03/16 09:36:50;;;;;;;23.23;4.80;;;;;;;15.50;100.00;101052.94;4970197;28;20030;-73
2024/03/16 09:39:15;;;;;;;33.85;5.15;;;;;;;15.66;100.00;101057.06;4995749;28;20034;-73
2024/03/16 09:41:41;;;;;;;38.25;5.55;;;;;;;15.81;100.00;101059.50;4965203;28;20466;-74
2024/03/16 09:44:11;;;;;;;33.08;5.20;;;;;;;15.98;100.00;101055.22;4988803;28;20094;-74
2024/03/16 09:46:39;;;;;;;28.05;5.63;;;;;;;16.11;100.00;101057.13;5003786;28;20025;-73
2024/03/16 09:49:04;;;;;;;32.40;6.00;;;;;;;16.24;100.00;101061.84;4954416;28;20030;-74
2024/03/16 09:51:31;;;;;;;33.75;5.10;;;;;;;16.36;100.00;101071.66;4960756;28;20062;-74
2024/03/16 09:53:57;;;;;;;25.63;4.63;;;;;;;16.49;100.00;101065.97;4997090;28;20386;-74
2024/03/16 09:56:22;;;;;;;35.17;5.20;;;;;;;16.62;100.00;101077.41;4976481;28;20104;-74
2024/03/16 09:58:48;;;;;;;35.53;5.45;;;;;;;16.71;100.00;101079.09;4956248;28;20034;-74
2024/03/16 10:01:15;;;;;;;23.27;4.90;;;;;;;16.85;100.00;101089.44;4950037;28;20062;-74
2024/03/16 10:03:42;;;;;;;31.85;4.63;;;;;;;16.98;100.00;101089.34;5004565;28;20171;-74
2024/03/16 10:06:09;;;;;;;27.92;5.13;;;;;;;17.11;100.00;101087.59;5000707;28;20022;-74
2024/03/16 10:08:37;;;;;;;27.02;4.30;;;;;;;17.23;100.00;101086.13;4988866;28;20061;-74
2024/03/16 10:11:10;;;;;;;22.42;4.50;;;;;;;17.36;100.00;101096.44;4963933;28;20129;-74
2024/03/16 10:13:37;;;;;;;26.23;5.10;;;;;;;17.51;100.00;101095.13;4995343;28;20022;-74
2024/03/16 10:16:03;;;;;;;27.42;4.45;;;;;;;17.64;100.00;101095.00;4980866;28;20034;-74
2024/03/16 10:18:29;;;;;;;26.30;4.47;;;;;;;17.73;100.00;101097.00;4995314;28;20033;-74
2024/03/16 10:20:54;;;;;;;35.20;5.35;;;;;;;17.81;100.00;101087.78;4982243;28;20034;-74
2024/03/16 10:23:20;;;;;;;30.88;5.35;;;;;;;17.88;100.00;101095.72;5004599;28;20089;-74
2024/03/16 10:25:46;;;;;;;29.08;5.30;;;;;;;17.95;100.00;101102.50;4994861;28;20120;-74
2024/03/16 10:28:18;;;;;;;29.90;4.85;;;;;;;18.00;100.00;101107.97;4962909;28;20030;-74
2024/03/16 10:30:46;;;;;;;28.53;5.20;;;;;;;18.10;100.00;101112.41;4963686;28;20034;-74
2024/03/16 10:33:12;;;;;;;27.83;4.68;;;;;;;18.13;100.00;101116.56;4975358;28;20027;-74
2024/03/16 10:35:41;;;;;;;28.50;5.75;;;;;;;18.14;100.00;101107.81;4973589;28;20054;-74
2024/03/16 10:38:13;;;;;;;21.15;3.75;;;;;;;18.09;100.00;101096.72;4971575;28;20058;-74
2024/03/16 10:40:40;;;;;;;28.88;4.53;;;;;;;18.05;100.00;101099.38;4978563;28;20143;-69
2024/03/16 10:43:11;;;;;;;19.90;3.47;;;;;;;17.97;100.00;101102.16;4985333;28;20039;-67
2024/03/16 10:45:37;;;;;;;20.20;3.38;;;;;;;17.85;100.00;101095.22;4985453;28;20030;-74
2024/03/16 10:48:03;;;;;;;18.67;3.33;;;;;;;17.78;100.00;101099.66;5001180;28;20038;-67
2024/03/16 10:50:30;;;;;;;21.90;4.07;;;;;;;17.77;100.00;101103.59;4997932;28;20030;-67
2024/03/16 10:52:55;;;;;;;22.17;4.13;;;;;;;17.79;100.00;101102.16;5001382;28;20030;-67
2024/03/16 10:55:22;;;;;;;29.13;4.63;;;;;;;17.83;100.00;101086.31;5000806;28;20034;-66
2024/03/16 10:57:54;;;;;;;31.73;4.78;;;;;;;17.87;100.00;101094.88;4978562;28;20114;-74
2024/03/16 11:00:26;;;;;;;28.17;4.95;;;;;;;17.87;100.00;101094.88;4978436;28;20502;-74
2024/03/16 11:03:01;;;;;;;24.73;5.57;;;;;;;17.94;100.00;101100.00;4998456;28;20038;-74
2024/03/16 11:05:32;;;;;;;29.48;5.22;;;;;;;17.99;100.00;101105.47;4987393;28;20030;-74
2024/03/16 11:08:21;;;;;;;38.00;6.45;;;;;;;18.05;100.00;101115.38;4983404;28;20045;-73
2024/03/16 11:10:49;;;;;;;29.33;4.97;;;;;;;18.08;100.00;101109.97;4994335;28;20030;-73